Time;durP1;ratioP1;P1;durP2;ratioP2;P2;SDS_P1;SDS_P2;PMS_P1;PMS_P2;Temp;Humidity;BMP_temperature;BMP_pressure;BME280_temperature;BME280_humidity;BME280_pressure;Samples;Min_cycle;Max_cycle;Signal;HPM_P1;HPM_P2
2022/04/30 00:00:37;;;;;;;7.37;6.07;;;16.60;48.70;;;;;;5051007;28;20879;-79
2022/04/30 00:03:05;;;;;;;6.13;5.50;;;16.50;47.00;;;;;;5049868;28;20457;-78
2022/04/30 00:05:34;;;;;;;7.07;6.37;;;16.50;49.90;;;;;;5052504;28;20457;-79
2022/04/30 00:08:04;;;;;;;7.20;6.60;;;16.50;52.50;;;;;;5040323;28;20462;-79
2022/04/30 00:10:37;;;;;;;6.80;6.10;;;16.60;51.60;;;;;;5051882;28;20549;-79
2022/04/30 00:13:10;;;;;;;6.00;5.40;;;16.60;51.50;;;;;;5050934;28;20454;-79
2022/04/30 00:15:39;;;;;;;6.20;5.60;;;16.60;52.50;;;;;;5050149;28;21639;-79
2022/04/30 00:18:08;;;;;;;6.13;5.63;;;16.60;55.50;;;;;;5044981;28;20475;-78
2022/04/30 00:20:36;;;;;;;6.67;6.10;;;16.70;53.70;;;;;;5049287;28;20465;-79
2022/04/30 00:23:04;;;;;;;7.57;5.30;;;16.70;58.10;;;;;;5047102;28;20465;-78
2022/04/30 00:25:33;;;;;;;5.40;5.00;;;16.70;57.10;;;;;;5051420;28;20462;-79
2022/04/30 00:28:01;;;;;;;5.70;5.30;;;16.70;57.30;;;;;;5048646;28;20476;-80
2022/04/30 00:30:30;;;;;;;5.40;4.90;;;16.70;55.40;;;;;;5051336;28;20471;-79
2022/04/30 00:32:59;;;;;;;5.43;4.93;;;16.70;54.90;;;;;;5049770;28;20981;-78
2022/04/30 00:35:27;;;;;;;5.90;5.30;;;16.70;63.00;;;;;;5051506;28;20479;-78
2022/04/30 00:37:55;;;;;;;7.10;6.03;;;16.70;54.70;;;;;;5050577;28;20461;-79
2022/04/30 00:40:23;;;;;;;5.43;4.63;;;16.60;56.40;;;;;;5050147;28;20523;-79
2022/04/30 00:42:51;;;;;;;6.23;5.40;;;16.60;54.60;;;;;;5048649;28;20431;-78
2022/04/30 00:45:20;;;;;;;5.80;5.30;;;16.50;54.10;;;;;;5051883;28;20453;-75
2022/04/30 00:47:50;;;;;;;6.13;5.20;;;16.50;52.50;;;;;;5046283;28;20468;-79
2022/04/30 00:50:21;;;;;;;6.70;5.87;;;16.50;52.40;;;;;;5052201;28;20478;-78
2022/04/30 00:52:52;;;;;;;5.73;5.23;;;16.50;51.50;;;;;;5060006;28;20830;-79
2022/04/30 00:55:22;;;;;;;5.50;5.10;;;16.50;50.70;;;;;;5059073;28;20527;-79
2022/04/30 00:57:54;;;;;;;5.80;5.30;;;16.50;50.50;;;;;;5058694;28;20743;-77
2022/04/30 01:00:22;;;;;;;5.60;5.13;;;16.50;52.30;;;;;;5051950;28;20485;-77
2022/04/30 01:02:52;;;;;;;5.50;5.03;;;16.50;50.10;;;;;;5057046;28;20457;-80
2022/04/30 01:05:20;;;;;;;6.83;6.13;;;16.40;52.00;;;;;;5058955;28;20458;-80
2022/04/30 01:07:49;;;;;;;6.63;5.50;;;16.20;51.00;;;;;;5057752;28;20541;-80
2022/04/30 01:10:18;;;;;;;8.23;5.67;;;16.20;53.10;;;;;;5053271;28;20653;-79
2022/04/30 01:12:47;;;;;;;7.73;7.00;;;16.30;54.40;;;;;;5058667;28;21011;-80
2022/04/30 01:15:16;;;;;;;10.40;6.93;;;16.40;57.10;;;;;;5056510;28;21004;-79
2022/04/30 01:17:44;;;;;;;8.90;8.07;;;16.30;61.30;;;;;;5055978;28;21382;-79
2022/04/30 01:20:14;;;;;;;9.20;7.83;;;16.20;63.30;;;;;;5055620;28;20472;-80
2022/04/30 01:22:58;;;;;;;8.70;7.53;;;16.20;64.50;;;;;;5060694;28;20496;-80
2022/04/30 01:25:27;;;;;;;9.50;7.43;;;16.20;66.40;;;;;;5085929;28;20580;-79
2022/04/30 01:27:56;;;;;;;9.50;7.27;;;16.20;70.60;;;;;;5056745;28;20462;-79
2022/04/30 01:30:24;;;;;;;13.50;9.27;;;16.20;73.00;;;;;;5084355;28;21043;-80
2022/04/30 01:38:27;;;;;;;12.33;9.17;;;16.20;82.70;;;;;;5059947;28;20457;-78
2022/04/30 01:40:56;;;;;;;12.97;9.43;;;16.20;85.30;;;;;;5058047;28;20552;-79
2022/04/30 01:43:25;;;;;;;14.03;8.10;;;16.20;86.90;;;;;;5056392;28;20822;-77
2022/04/30 01:45:54;;;;;;;10.10;7.73;;;16.20;88.40;;;;;;5055959;28;20468;-79
2022/04/30 01:48:22;;;;;;;11.43;8.53;;;16.10;91.20;;;;;;5065027;28;20534;-78
2022/04/30 01:50:52;;;;;;;12.30;8.70;;;16.00;92.60;;;;;;5061305;28;20471;-79
2022/04/30 01:53:20;;;;;;;13.37;8.93;;;16.00;93.70;;;;;;5060921;28;20442;-79
2022/04/30 01:55:51;;;;;;;10.50;9.50;;;16.00;95.20;;;;;;5062683;28;20453;-82
2022/04/30 01:58:20;;;;;;;15.50;8.60;;;16.00;97.30;;;;;;5064465;28;20458;-79
2022/04/30 02:00:48;;;;;;;13.53;8.10;;;15.90;97.90;;;;;;5058366;28;20482;-79
2022/04/30 02:03:16;;;;;;;10.10;7.53;;;15.90;99.90;;;;;;5061748;28;20457;-79
2022/04/30 02:05:46;;;;;;;12.20;7.60;;;16.00;99.90;;;;;;5060148;28;20554;-79
2022/04/30 02:08:18;;;;;;;14.50;8.53;;;16.00;99.20;;;;;;5059753;28;20508;-79
2022/04/30 02:10:48;;;;;;;11.13;7.80;;;16.00;99.50;;;;;;5060023;28;20484;-80
2022/04/30 02:13:23;;;;;;;8.33;7.47;;;16.00;99.20;;;;;;5059250;28;20467;-80
2022/04/30 02:15:53;;;;;;;9.40;7.03;;;15.90;99.20;;;;;;5059075;28;20550;-79
2022/04/30 02:18:23;;;;;;;7.70;6.90;;;15.90;99.90;;;;;;5065749;28;20460;-79
2022/04/30 02:20:52;;;;;;;10.33;6.70;;;15.90;99.90;;;;;;5062038;28;20901;-79
2022/04/30 02:23:22;;;;;;;11.57;6.53;;;15.90;99.90;;;;;;5063145;28;20446;-80
2022/04/30 02:25:52;;;;;;;9.77;7.43;;;15.80;99.90;;;;;;5062109;28;20995;-81
2022/04/30 02:28:21;;;;;;;8.53;5.80;;;15.80;99.90;;;;;;5061800;28;20847;-81
2022/04/30 02:30:49;;;;;;;8.73;7.20;;;15.90;99.90;;;;;;5056926;28;21122;-79
2022/04/30 02:33:18;;;;;;;8.20;7.00;;;15.90;99.90;;;;;;5058986;28;20483;-78
2022/04/30 02:35:46;;;;;;;7.63;6.00;;;15.80;99.90;;;;;;5063181;28;20465;-78
2022/04/30 02:38:15;;;;;;;8.23;5.90;;;15.80;99.90;;;;;;5059976;28;20489;-79
2022/04/30 02:40:43;;;;;;;9.03;6.03;;;15.90;99.90;;;;;;5064231;28;20527;-78
2022/04/30 02:43:12;;;;;;;7.80;5.70;;;15.80;99.90;;;;;;5063513;28;20461;-79
2022/04/30 02:45:42;;;;;;;7.33;5.77;;;15.80;99.90;;;;;;5060603;28;20450;-79
2022/04/30 02:48:13;;;;;;;8.47;6.57;;;15.80;99.90;;;;;;5059816;28;20951;-79
2022/04/30 02:50:42;;;;;;;6.80;5.17;;;15.70;99.90;;;;;;5062994;28;20484;-79
2022/04/30 02:53:10;;;;;;;11.30;8.10;;;15.70;99.90;;;;;;5060108;28;20494;-78
2022/04/30 02:55:38;;;;;;;8.83;7.23;;;15.70;99.90;;;;;;5059739;28;20467;-80
2022/04/30 03:00:54;;;;;;;13.17;9.07;;;15.70;99.90;;;;;;5060383;28;20481;-79
2022/04/30 03:03:23;;;;;;;9.37;7.60;;;15.60;99.90;;;;;;5059671;28;20444;-79
2022/04/30 03:05:53;;;;;;;12.60;8.40;;;15.60;99.90;;;;;;5060789;28;20451;-81
2022/04/30 03:08:23;;;;;;;15.43;8.47;;;15.60;99.90;;;;;;5061148;28;20514;-79
2022/04/30 03:10:53;;;;;;;12.37;8.80;;;15.60;99.90;;;;;;5062038;28;20875;-81
2022/04/30 03:13:23;;;;;;;13.40;9.27;;;15.60;99.90;;;;;;5061245;28;20456;-80
2022/04/30 03:15:55;;;;;;;16.03;9.83;;;15.60;99.90;;;;;;5060573;28;20784;-81
2022/04/30 03:23:56;;;;;;;12.10;9.13;;;15.60;99.90;;;;;;5064242;28;20458;-80
2022/04/30 03:26:26;;;;;;;18.10;9.33;;;15.60;99.90;;;;;;5060773;28;20493;-79
2022/04/30 03:28:55;;;;;;;12.40;8.50;;;15.60;99.90;;;;;;5062004;28;20946;-79
2022/04/30 03:31:25;;;;;;;13.87;9.70;;;15.60;99.90;;;;;;5059118;28;20496;-80
2022/04/30 03:33:53;;;;;;;18.30;10.63;;;15.50;99.90;;;;;;5062373;28;20492;-79
2022/04/30 03:36:21;;;;;;;14.53;10.50;;;15.70;99.90;;;;;;5058155;28;20566;-77
2022/04/30 03:38:49;;;;;;;13.37;9.40;;;15.50;99.90;;;;;;5059382;28;20561;-77
2022/04/30 03:41:18;;;;;;;13.77;10.97;;;15.50;99.90;;;;;;5060757;28;20584;-79
2022/04/30 03:43:46;;;;;;;13.53;8.90;;;15.50;99.90;;;;;;5061591;28;20463;-80
2022/04/30 03:46:14;;;;;;;14.17;9.80;;;15.40;99.90;;;;;;5059091;28;20466;-79
2022/04/30 03:48:44;;;;;;;14.47;9.67;;;15.50;99.90;;;;;;5060169;28;20455;-80
2022/04/30 03:51:13;;;;;;;9.80;8.00;;;15.60;99.90;;;;;;5060154;28;20484;-80
2022/04/30 03:53:46;;;;;;;16.53;10.90;;;15.40;99.90;;;;;;5056903;28;20472;-81
2022/04/30 03:56:16;;;;;;;19.13;10.10;;;15.50;99.90;;;;;;5059566;28;20454;-79
2022/04/30 03:58:46;;;;;;;12.17;9.47;;;15.50;99.90;;;;;;5057953;28;20480;-78
2022/04/30 04:01:15;;;;;;;12.23;9.50;;;15.50;99.90;;;;;;5053004;28;22656;-78
2022/04/30 04:03:45;;;;;;;15.40;10.67;;;15.50;99.90;;;;;;5060801;28;20519;-81
2022/04/30 04:06:15;;;;;;;16.43;10.53;;;15.40;99.90;;;;;;5059695;28;20976;-80
2022/04/30 04:08:43;;;;;;;15.80;10.50;;;15.40;99.90;;;;;;5062119;28;20454;-79
2022/04/30 04:11:13;;;;;;;16.53;11.80;;;15.30;99.90;;;;;;5060015;28;20469;-78
2022/04/30 04:19:14;;;;;;;18.07;12.03;;;15.40;99.90;;;;;;5058478;28;20483;-78
2022/04/30 04:21:42;;;;;;;17.83;11.30;;;15.30;99.90;;;;;;5092896;28;20886;-79
2022/04/30 04:26:56;;;;;;;14.27;12.10;;;15.20;99.90;;;;;;5059976;28;20460;-80
2022/04/30 04:29:24;;;;;;;14.60;10.33;;;15.30;99.90;;;;;;5060732;28;20458;-79
2022/04/30 04:31:52;;;;;;;15.57;12.60;;;15.30;99.90;;;;;;5060592;28;20537;-81
2022/04/30 04:34:22;;;;;;;17.83;11.20;;;15.30;99.90;;;;;;5061168;28;20990;-79
2022/04/30 04:36:50;;;;;;;15.57;10.40;;;15.30;99.90;;;;;;5060031;28;20880;-78
2022/04/30 04:39:18;;;;;;;17.90;11.20;;;15.30;99.90;;;;;;5058152;28;20494;-79
2022/04/30 04:41:46;;;;;;;19.00;12.30;;;15.20;99.90;;;;;;5061459;28;20452;-79
2022/04/30 04:44:14;;;;;;;13.43;10.93;;;15.20;99.90;;;;;;5056845;28;20973;-79
2022/04/30 04:46:43;;;;;;;18.53;11.87;;;15.20;99.90;;;;;;5058639;28;20467;-78
2022/04/30 04:49:12;;;;;;;17.53;12.03;;;15.20;99.90;;;;;;5057995;28;20447;-78
2022/04/30 04:51:41;;;;;;;16.10;12.67;;;15.20;99.90;;;;;;5056660;28;20459;-78
2022/04/30 04:54:10;;;;;;;17.57;11.33;;;15.20;99.90;;;;;;5057591;28;20511;-79
2022/04/30 04:56:39;;;;;;;14.37;10.10;;;15.20;99.90;;;;;;5056930;28;20456;-78
2022/04/30 04:59:08;;;;;;;16.50;10.27;;;15.10;99.90;;;;;;5057497;28;20622;-79
2022/04/30 05:01:36;;;;;;;15.60;9.83;;;15.10;99.90;;;;;;5060994;28;20996;-79
2022/04/30 05:04:05;;;;;;;19.30;11.90;;;15.10;99.90;;;;;;5058678;28;20459;-79
2022/04/30 05:06:33;;;;;;;17.47;11.60;;;15.10;99.90;;;;;;5060174;28;20451;-78
2022/04/30 05:09:03;;;;;;;15.43;11.10;;;15.10;99.90;;;;;;5060402;28;20824;-78
2022/04/30 05:11:31;;;;;;;16.63;11.10;;;15.10;99.90;;;;;;5060051;28;20467;-78
2022/04/30 05:13:59;;;;;;;16.47;9.90;;;15.10;99.90;;;;;;5091692;28;20452;-77
2022/04/30 05:16:27;;;;;;;13.10;10.07;;;15.20;99.90;;;;;;5057309;28;20473;-77
2022/04/30 05:18:56;;;;;;;15.33;10.93;;;15.20;99.90;;;;;;5055949;28;20475;-77
2022/04/30 05:21:25;;;;;;;16.10;11.40;;;15.20;99.90;;;;;;5059299;28;20519;-77
2022/04/30 05:23:53;;;;;;;12.97;9.83;;;15.10;99.90;;;;;;5062586;28;20466;-78
2022/04/30 05:26:22;;;;;;;16.20;10.70;;;15.10;99.90;;;;;;5058046;28;20466;-78
2022/04/30 05:28:51;;;;;;;16.23;10.70;;;15.00;99.90;;;;;;5063741;28;21254;-78
2022/04/30 05:31:19;;;;;;;13.53;9.70;;;15.10;99.90;;;;;;5061616;28;20479;-79
2022/04/30 05:33:48;;;;;;;15.47;11.03;;;15.10;99.90;;;;;;5059599;28;21102;-77
2022/04/30 05:36:16;;;;;;;15.07;9.90;;;15.10;99.90;;;;;;5060578;28;20452;-77
2022/04/30 05:38:44;;;;;;;16.10;10.63;;;15.10;99.90;;;;;;5066560;28;20498;-77
2022/04/30 05:41:12;;;;;;;17.43;10.90;;;15.10;99.90;;;;;;5062172;28;20477;-78
2022/04/30 05:43:42;;;;;;;13.77;9.63;;;15.20;99.90;;;;;;5062414;28;20477;-77
2022/04/30 05:46:12;;;;;;;12.83;9.30;;;15.20;99.90;;;;;;5091829;28;20463;-78
2022/04/30 05:48:40;;;;;;;15.83;10.43;;;15.10;99.90;;;;;;5061687;28;20448;-77
2022/04/30 05:51:08;;;;;;;11.33;9.57;;;15.20;99.90;;;;;;5061155;28;20987;-77
2022/04/30 05:53:36;;;;;;;14.70;11.00;;;15.10;99.90;;;;;;5063143;28;20455;-77
2022/04/30 05:56:05;;;;;;;13.40;9.10;;;15.10;99.90;;;;;;5058976;28;20456;-77
2022/04/30 05:58:33;;;;;;;13.80;10.23;;;15.10;99.90;;;;;;5059369;28;20477;-78
2022/04/30 06:01:03;;;;;;;13.60;9.70;;;15.10;99.90;;;;;;5062328;28;20478;-78
2022/04/30 06:03:33;;;;;;;15.40;10.33;;;15.10;99.90;;;;;;5061574;28;20462;-78
2022/04/30 06:06:01;;;;;;;13.57;9.10;;;15.10;99.90;;;;;;5061153;28;20471;-78
2022/04/30 06:08:30;;;;;;;13.83;9.17;;;15.10;99.90;;;;;;5061215;28;20527;-78
2022/04/30 06:10:58;;;;;;;14.60;10.03;;;15.10;99.90;;;;;;5062906;28;20476;-78
2022/04/30 06:13:26;;;;;;;15.43;10.23;;;15.10;99.90;;;;;;5058443;28;20524;-78
2022/04/30 06:15:54;;;;;;;12.27;9.20;;;15.10;99.90;;;;;;5061087;28;20456;-78
2022/04/30 06:18:25;;;;;;;13.97;10.30;;;15.10;99.90;;;;;;5060675;28;20523;-78
2022/04/30 06:20:53;;;;;;;16.37;9.97;;;15.10;99.90;;;;;;5063203;28;20477;-76
2022/04/30 06:23:21;;;;;;;13.37;9.60;;;15.10;99.90;;;;;;5061560;28;20802;-78
2022/04/30 06:25:50;;;;;;;13.70;10.47;;;15.10;99.90;;;;;;5058347;28;22607;-79
2022/04/30 06:28:18;;;;;;;12.93;10.53;;;15.10;1.00;;;;;;5058696;28;20990;-78
2022/04/30 06:30:46;;;;;;;13.73;10.37;;;15.20;99.90;;;;;;5061336;28;20468;-78
2022/04/30 06:33:15;;;;;;;15.37;9.27;;;15.20;99.90;;;;;;5057836;28;20506;-78
2022/04/30 06:35:46;;;;;;;14.20;9.80;;;15.20;99.90;;;;;;5062587;28;20461;-78
2022/04/30 06:38:15;;;;;;;14.70;11.00;;;15.10;1.00;;;;;;5061896;28;20443;-78
2022/04/30 06:40:43;;;;;;;13.83;11.20;;;15.10;1.00;;;;;;5062152;28;20470;-78
2022/04/30 06:43:11;;;;;;;13.13;9.47;;;15.10;1.00;;;;;;5064235;28;20462;-78
2022/04/30 06:45:39;;;;;;;14.20;9.40;;;15.10;1.00;;;;;;5058952;28;20722;-79
2022/04/30 06:48:08;;;;;;;12.87;9.70;;;15.10;1.00;;;;;;5060620;28;20467;-79
2022/04/30 06:50:36;;;;;;;12.57;9.40;;;15.10;1.00;;;;;;5061109;28;20477;-78
2022/04/30 06:58:44;;;;;;;10.67;8.63;;;15.10;99.90;;;;;;5060352;28;20490;-77
2022/04/30 07:01:37;;;;;;;10.87;8.57;;;15.10;99.90;;;;;;5056649;28;20469;-77
2022/04/30 07:04:07;;;;;;;10.83;8.57;;;15.10;99.90;;;;;;5090147;28;21004;-78
2022/04/30 07:06:36;;;;;;;10.43;8.50;;;15.10;99.90;;;;;;5061961;28;21180;-79
2022/04/30 07:09:06;;;;;;;10.13;8.20;;;15.10;99.90;;;;;;5058376;28;20466;-80
2022/04/30 07:11:35;;;;;;;10.47;8.07;;;15.10;99.90;;;;;;5060007;28;20912;-79
2022/04/30 07:14:03;;;;;;;9.83;8.27;;;15.10;1.00;;;;;;5062722;28;20457;-79
2022/04/30 07:16:32;;;;;;;13.20;8.80;;;15.10;1.00;;;;;;5061032;28;20462;-78
2022/04/30 07:19:02;;;;;;;10.10;8.23;;;15.10;99.90;;;;;;5052857;28;20481;-79
2022/04/30 07:21:31;;;;;;;12.10;8.10;;;15.10;1.00;;;;;;5051897;28;20477;-79
2022/04/30 07:23:59;;;;;;;10.90;8.50;;;15.00;1.00;;;;;;5057531;28;20452;-80
2022/04/30 07:26:29;;;;;;;16.00;8.57;;;15.10;99.90;;;;;;5060651;28;20461;-79
2022/04/30 07:28:57;;;;;;;13.30;8.83;;;15.10;1.00;;;;;;5050906;28;20460;-79
2022/04/30 07:31:26;;;;;;;10.30;7.80;;;15.10;1.00;;;;;;5053443;28;20475;-77
2022/04/30 07:33:54;;;;;;;11.47;8.40;;;15.10;1.00;;;;;;5055217;28;20461;-81
2022/04/30 07:36:22;;;;;;;11.13;9.40;;;15.10;1.00;;;;;;5056730;28;20495;-80
2022/04/30 07:38:51;;;;;;;11.10;9.23;;;15.20;1.00;;;;;;5058712;28;20456;-79
2022/04/30 07:41:19;;;;;;;12.37;9.47;;;15.20;1.00;;;;;;5091156;28;20481;-79
2022/04/30 07:43:48;;;;;;;11.30;8.50;;;15.20;1.00;;;;;;5061120;28;20459;-78
2022/04/30 07:46:17;;;;;;;12.27;9.00;;;15.10;1.00;;;;;;5057434;28;20542;-79
2022/04/30 07:48:45;;;;;;;11.00;9.27;;;15.10;1.00;;;;;;5059857;28;20448;-78
2022/04/30 07:51:18;;;;;;;9.33;8.00;;;15.10;1.00;;;;;;5059884;28;20835;-79
2022/04/30 07:53:47;;;;;;;8.73;7.73;;;15.10;1.00;;;;;;5058664;28;20522;-79
2022/04/30 07:56:16;;;;;;;8.70;7.57;;;15.00;1.00;;;;;;5059601;28;20440;-79
2022/04/30 07:58:44;;;;;;;10.53;7.53;;;15.10;1.00;;;;;;5060402;28;20462;-79
2022/04/30 08:01:14;;;;;;;11.90;9.50;;;15.00;1.00;;;;;;5056193;28;20491;-80
2022/04/30 08:03:43;;;;;;;11.30;7.73;;;15.00;1.00;;;;;;5059010;28;20966;-78
2022/04/30 08:06:12;;;;;;;8.60;6.97;;;15.00;1.00;;;;;;5063319;28;21268;-79
2022/04/30 08:08:40;;;;;;;8.07;6.83;;;15.00;1.00;;;;;;5065525;28;20458;-78
2022/04/30 08:11:08;;;;;;;10.93;7.03;;;15.10;1.00;;;;;;5062869;28;20469;-78
2022/04/30 08:13:37;;;;;;;9.60;7.37;;;15.00;1.00;;;;;;5059803;28;20454;-78
2022/04/30 08:16:09;;;;;;;9.83;7.73;;;15.00;1.00;;;;;;5057413;28;20460;-77
2022/04/30 08:18:39;;;;;;;11.57;9.50;;;15.10;1.00;;;;;;5056526;28;20449;-77
2022/04/30 08:21:08;;;;;;;8.93;7.50;;;15.00;1.00;;;;;;5056372;28;20519;-79
2022/04/30 08:23:37;;;;;;;9.10;6.80;;;15.00;1.00;;;;;;5058194;28;20480;-77
2022/04/30 08:26:05;;;;;;;8.20;7.10;;;15.00;1.00;;;;;;5057287;28;20535;-78
2022/04/30 08:28:33;;;;;;;9.50;7.00;;;15.00;1.00;;;;;;5057821;28;21253;-78
2022/04/30 08:31:02;;;;;;;9.57;7.43;;;15.00;1.00;;;;;;5060492;28;20586;-78
2022/04/30 08:33:30;;;;;;;11.10;7.93;;;15.10;1.00;;;;;;5055544;28;20968;-73
2022/04/30 08:35:59;;;;;;;7.90;6.37;;;15.10;1.00;;;;;;5057480;28;20204;-74
2022/04/30 08:38:28;;;;;;;8.00;6.57;;;15.10;1.00;;;;;;5057858;28;20456;-75
2022/04/30 08:40:56;;;;;;;11.70;7.20;;;15.10;1.00;;;;;;5057966;28;20515;-75
2022/04/30 08:43:24;;;;;;;9.70;7.70;;;15.20;1.00;;;;;;5053499;28;20455;-74
2022/04/30 08:45:53;;;;;;;10.33;7.03;;;15.20;1.00;;;;;;5056248;28;20449;-75
2022/04/30 08:48:21;;;;;;;7.83;6.20;;;15.20;1.00;;;;;;5057746;28;20515;-74
2022/04/30 08:50:49;;;;;;;8.03;5.97;;;15.10;1.00;;;;;;5053573;28;20482;-75
2022/04/30 08:53:18;;;;;;;8.03;6.20;;;15.20;1.00;;;;;;5057480;28;20453;-74
2022/04/30 08:55:47;;;;;;;6.33;5.70;;;15.20;1.00;;;;;;5057254;28;20461;-74
2022/04/30 08:58:15;;;;;;;6.33;5.73;;;15.20;1.00;;;;;;5057312;28;20464;-75
2022/04/30 09:00:45;;;;;;;6.17;5.20;;;15.20;1.00;;;;;;5055301;28;20473;-74
2022/04/30 09:03:15;;;;;;;6.27;5.70;;;15.20;1.00;;;;;;5057896;28;20822;-74
2022/04/30 09:05:43;;;;;;;7.10;5.73;;;15.20;1.00;;;;;;5059731;28;20454;-73
2022/04/30 09:08:11;;;;;;;7.20;5.80;;;15.20;1.00;;;;;;5055178;28;20465;-75
2022/04/30 09:10:42;;;;;;;7.70;5.87;;;15.20;1.00;;;;;;5055373;28;20562;-74
2022/04/30 09:13:12;;;;;;;5.73;5.20;;;15.30;1.00;;;;;;5058718;28;20462;-75
2022/04/30 09:15:41;;;;;;;7.13;6.43;;;15.30;1.00;;;;;;5054726;28;21046;-75
2022/04/30 09:18:10;;;;;;;8.63;5.93;;;15.30;1.00;;;;;;5059147;28;20453;-74
2022/04/30 09:20:47;;;;;;;4.90;4.20;;;15.30;1.00;;;;;;5058674;28;20480;-75
2022/04/30 09:23:25;;;;;;;5.10;4.60;;;15.30;1.00;;;;;;5059048;28;20449;-76
2022/04/30 09:25:57;;;;;;;5.77;4.73;;;15.30;1.00;;;;;;5057913;28;20453;-75
2022/04/30 09:28:27;;;;;;;5.23;4.70;;;15.30;1.00;;;;;;5057114;28;20476;-77
2022/04/30 09:31:09;;;;;;;6.13;5.43;;;15.30;1.00;;;;;;5056314;28;21275;-77
2022/04/30 09:33:38;;;;;;;6.20;5.60;;;15.30;1.00;;;;;;5060839;28;20511;-77
2022/04/30 09:38:54;;;;;;;5.33;4.83;;;15.40;1.00;;;;;;5054883;28;20452;-77
2022/04/30 09:41:24;;;;;;;5.93;5.40;;;15.40;1.00;;;;;;5054321;28;20650;-77
2022/04/30 09:44:01;;;;;;;9.00;7.27;;;15.50;1.00;;;;;;5057442;28;20465;-77
2022/04/30 09:46:30;;;;;;;7.47;5.87;;;15.50;1.00;;;;;;5087265;28;20458;-77
2022/04/30 09:54:30;;;;;;;6.00;5.27;;;15.60;99.90;;;;;;5057473;28;20454;-77
2022/04/30 09:57:01;;;;;;;7.33;5.47;;;15.70;1.00;;;;;;5054550;28;20513;-77
2022/04/30 09:59:31;;;;;;;7.50;5.40;;;15.70;1.00;;;;;;5058104;28;20547;-77
2022/04/30 10:02:03;;;;;;;6.80;5.33;;;15.80;1.00;;;;;;5055656;28;20855;-77
2022/04/30 10:04:33;;;;;;;5.87;4.57;;;15.80;1.00;;;;;;5057788;28;20489;-77
2022/04/30 10:07:03;;;;;;;5.50;4.47;;;15.90;1.00;;;;;;5057006;28;20977;-78
2022/04/30 10:09:34;;;;;;;4.63;4.20;;;16.00;1.00;;;;;;5060300;28;20461;-76
2022/04/30 10:12:11;;;;;;;4.20;3.83;;;16.00;1.00;;;;;;5059726;28;20449;-77
2022/04/30 10:14:58;;;;;;;3.90;3.57;;;16.00;1.00;;;;;;5060684;28;20444;-77
2022/04/30 10:17:29;;;;;;;3.93;3.63;;;16.00;1.00;;;;;;5058144;28;20447;-78
2022/04/30 10:19:59;;;;;;;7.03;3.17;;;16.00;1.00;;;;;;5055613;28;20477;-78
2022/04/30 10:22:28;;;;;;;3.83;2.77;;;16.00;1.00;;;;;;5059006;28;20490;-77
2022/04/30 10:24:57;;;;;;;4.27;3.87;;;16.20;1.00;;;;;;5059043;28;20538;-77
2022/04/30 10:27:41;;;;;;;5.00;3.83;;;16.10;99.90;;;;;;5059809;28;20541;-76
2022/04/30 10:30:19;;;;;;;6.23;3.97;;;16.10;99.90;;;;;;5061709;28;20491;-78
2022/04/30 10:32:58;;;;;;;4.20;3.37;;;16.10;99.90;;;;;;5060668;28;21427;-79
2022/04/30 10:35:30;;;;;;;4.07;3.03;;;16.10;99.90;;;;;;5062595;28;20489;-75
2022/04/30 10:38:17;;;;;;;3.40;3.00;;;16.30;99.90;;;;;;5059233;28;20468;-78
2022/04/30 10:40:48;;;;;;;3.17;2.87;;;16.30;99.90;;;;;;5060422;28;20477;-78
2022/04/30 10:43:31;;;;;;;3.43;3.13;;;16.30;99.90;;;;;;5063005;28;20521;-77
2022/04/30 10:45:59;;;;;;;2.80;2.60;;;16.40;99.90;;;;;;5062846;28;20466;-78
2022/04/30 10:48:28;;;;;;;3.07;2.80;;;16.50;99.90;;;;;;5058810;28;20541;-77
2022/04/30 10:51:06;;;;;;;3.53;2.93;;;16.40;99.90;;;;;;5094322;28;20469;-77
2022/04/30 10:53:35;;;;;;;2.83;2.63;;;16.40;99.90;;;;;;5059070;28;20454;-78
2022/04/30 10:56:05;;;;;;;3.90;2.37;;;16.40;99.90;;;;;;5060659;28;20494;-77
2022/04/30 10:58:37;;;;;;;2.57;2.37;;;16.40;99.90;;;;;;5059530;28;21243;-76
2022/04/30 11:01:12;;;;;;;2.93;2.53;;;16.50;99.90;;;;;;5061498;28;20486;-77
2022/04/30 11:03:42;;;;;;;2.57;2.37;;;16.60;99.90;;;;;;5054560;28;20445;-79
2022/04/30 11:06:12;;;;;;;3.87;3.53;;;16.70;99.90;;;;;;5059807;28;20451;-78
2022/04/30 11:08:40;;;;;;;2.33;2.13;;;16.70;99.90;;;;;;5053353;28;20484;-77
2022/04/30 11:11:08;;;;;;;2.07;1.90;;;16.70;99.90;;;;;;5056757;28;20963;-79
2022/04/30 11:13:38;;;;;;;2.13;1.93;;;16.60;99.90;;;;;;5060818;28;20473;-76
2022/04/30 11:16:14;;;;;;;2.50;2.30;;;16.60;99.90;;;;;;5060447;28;21150;-74
2022/04/30 11:18:43;;;;;;;2.87;2.57;;;16.50;99.90;;;;;;5058679;28;20462;-77
2022/04/30 11:21:11;;;;;;;1.77;1.67;;;16.50;99.90;;;;;;5058462;28;20585;-77
2022/04/30 11:23:39;;;;;;;2.30;1.73;;;16.40;99.90;;;;;;5056352;28;20470;-77
2022/04/30 11:26:18;;;;;;;1.50;1.40;;;16.30;99.90;;;;;;5051400;28;20457;-78
2022/04/30 11:28:49;;;;;;;1.93;1.37;;;16.20;99.90;;;;;;5056416;28;20482;-77
2022/04/30 11:31:20;;;;;;;2.40;2.30;;;16.20;99.90;;;;;;5059907;28;21104;-77
2022/04/30 11:33:48;;;;;;;1.60;1.50;;;16.40;99.90;;;;;;5062268;28;20439;-76
2022/04/30 11:36:17;;;;;;;2.67;2.10;;;16.50;99.90;;;;;;5059151;28;20461;-77
2022/04/30 11:38:53;;;;;;;2.60;2.40;;;16.40;99.90;;;;;;5057516;28;21305;-77
2022/04/30 11:41:21;;;;;;;2.43;2.00;;;16.40;99.90;;;;;;5056329;28;20856;-77
2022/04/30 11:44:00;;;;;;;1.97;1.70;;;16.40;99.90;;;;;;5065341;28;20459;-77
2022/04/30 11:46:29;;;;;;;4.50;2.40;;;16.40;99.90;;;;;;5055110;28;20479;-76
2022/04/30 11:48:57;;;;;;;3.33;3.03;;;16.50;99.90;;;;;;5056920;28;20454;-76
2022/04/30 11:51:29;;;;;;;2.30;2.00;;;16.60;99.90;;;;;;5058982;28;21081;-77
2022/04/30 11:53:57;;;;;;;2.23;2.03;;;16.70;99.90;;;;;;5059253;28;20796;-78
2022/04/30 11:56:28;;;;;;;3.30;3.07;;;16.70;99.90;;;;;;5055108;28;20465;-76
2022/04/30 11:58:56;;;;;;;4.03;2.30;;;16.60;99.90;;;;;;5054336;28;20767;-77
2022/04/30 12:01:29;;;;;;;3.50;3.20;;;16.60;99.90;;;;;;5052841;28;20511;-77
2022/04/30 12:04:01;;;;;;;4.83;2.00;;;16.60;99.90;;;;;;5053542;28;20700;-78
2022/04/30 12:06:30;;;;;;;3.67;3.03;;;16.70;99.90;;;;;;5058819;28;20467;-77
2022/04/30 12:08:58;;;;;;;3.40;2.80;;;16.70;99.90;;;;;;5059666;28;20505;-76
2022/04/30 12:11:27;;;;;;;3.13;2.80;;;16.80;99.90;;;;;;5059958;28;20467;-74
2022/04/30 12:14:00;;;;;;;2.77;2.57;;;16.70;99.90;;;;;;5057136;28;20458;-77
2022/04/30 12:16:41;;;;;;;3.03;2.50;;;16.70;99.90;;;;;;5060705;28;20460;-74
2022/04/30 12:25:06;;;;;;;2.47;2.27;;;16.80;99.90;;;;;;5059501;28;20517;-78
2022/04/30 12:27:35;;;;;;;3.30;3.00;;;16.70;99.90;;;;;;5062100;28;20464;-77
2022/04/30 12:30:23;;;;;;;3.40;3.10;;;16.60;99.90;;;;;;5057845;28;20522;-77
2022/04/30 12:32:54;;;;;;;3.50;2.40;;;16.60;99.90;;;;;;5065025;28;20458;-78
2022/04/30 12:35:27;;;;;;;2.30;2.00;;;16.70;99.90;;;;;;5061796;28;20443;-77
2022/04/30 12:38:06;;;;;;;2.00;1.90;;;16.70;99.90;;;;;;5058798;28;20534;-77
2022/04/30 12:40:35;;;;;;;2.97;2.57;;;16.70;99.90;;;;;;5051782;28;20899;-76
2022/04/30 12:43:04;;;;;;;2.17;1.97;;;16.50;99.90;;;;;;5064142;28;20496;-77
2022/04/30 12:45:36;;;;;;;2.33;2.13;;;16.50;99.90;;;;;;5064889;28;21033;-76
2022/04/30 12:48:08;;;;;;;3.10;2.50;;;16.70;99.90;;;;;;5065395;28;20461;-77
2022/04/30 12:50:36;;;;;;;2.37;2.17;;;16.70;99.90;;;;;;5063761;28;20494;-77
2022/04/30 12:53:09;;;;;;;3.03;2.10;;;16.90;99.90;;;;;;5063076;28;20458;-77
2022/04/30 12:55:38;;;;;;;1.67;1.57;;;17.00;99.90;;;;;;5058612;28;20462;-76
2022/04/30 12:58:06;;;;;;;1.43;1.33;;;17.00;99.90;;;;;;5057821;28;20991;-77
2022/04/30 13:00:35;;;;;;;1.50;1.27;;;17.00;99.90;;;;;;5059661;28;20506;-75
2022/04/30 13:03:07;;;;;;;1.77;1.53;;;17.00;99.90;;;;;;5063240;28;20463;-76
2022/04/30 13:05:36;;;;;;;2.20;1.77;;;16.90;99.90;;;;;;5061736;28;20444;-75
2022/04/30 13:08:05;;;;;;;2.50;1.50;;;16.70;99.90;;;;;;5064752;28;20845;-77
2022/04/30 13:13:35;;;;;;;2.00;1.70;;;16.60;99.90;;;;;;5063757;28;20448;-74
2022/04/30 13:16:05;;;;;;;2.13;1.93;;;16.70;99.90;;;;;;5061143;28;21132;-77
2022/04/30 13:18:35;;;;;;;3.93;2.20;;;16.70;99.90;;;;;;5050075;28;20547;-77
2022/04/30 13:21:04;;;;;;;2.40;2.20;;;16.50;99.90;;;;;;5064551;28;21023;-77
2022/04/30 13:23:32;;;;;;;2.70;2.40;;;16.50;99.90;;;;;;5066002;28;20480;-78
2022/04/30 13:26:00;;;;;;;4.00;2.60;;;16.60;99.90;;;;;;5065055;28;20464;-77
2022/04/30 13:28:29;;;;;;;4.47;2.20;;;16.70;99.90;;;;;;5056945;28;20450;-77
2022/04/30 13:30:57;;;;;;;2.73;2.20;;;16.70;99.90;;;;;;5049755;28;20477;-76
2022/04/30 13:33:25;;;;;;;2.60;2.30;;;16.70;99.90;;;;;;5060503;28;20480;-75
2022/04/30 13:35:55;;;;;;;2.70;2.50;;;16.80;99.90;;;;;;5056030;28;20451;-76
2022/04/30 13:38:24;;;;;;;2.80;2.57;;;16.70;99.90;;;;;;5062826;28;20467;-77
2022/04/30 13:40:53;;;;;;;3.00;2.70;;;16.80;99.90;;;;;;5065953;28;20461;-75